Latest Weather Observations for Barrow Island

IDW60801

Issued at 2:33 pm WST Friday 27 March 2015 (issued every 30 minutes, with the page automatically refreshed every 10 minutes)

About weather observations | Map of weather stations | Latest weather observations for WA | Other Formats
Station Details ID: 005094 Name: BARROW ISLAND AIRPORT Lat: -20.88 Lon: 115.41 Height: 6.4 m
Data from the previous 72 hours. | See also: Recent months at Barrow Island
Date/Time
WST
Temp
°C
App
Temp
°C
Dew
Point
Rel
Hum
%
Delta-T
°C
Wind Press
QNH
hPa
Press
MSL
hPa
Rain
since 9 am
mm
Dir
 
Spd
km/h
Gust
km/h
Spd
kts
Gust
kts
27/02:30pm 32.6 33.9 18.4 43 9.2 SE 9 13 5 7 1011.9 - 0.0
27/02:00pm 31.9 32.7 18.1 43 8.9 S 11 13 6 7 1012.1 - 0.0
27/01:30pm 31.9 32.7 18.1 43 8.9 SSW 11 13 6 7 1012.3 - 0.0
27/01:00pm 31.5 33.1 19.2 48 8.0 SSW 9 13 5 7 1012.7 - 0.0
27/12:30pm 31.1 32.7 19.1 48 7.8 S 9 11 5 6 1013.1 - 0.0
27/12:00pm 31.8 33.2 18.7 45 8.5 S 9 11 5 6 1013.6 1013.6 0.0
27/11:30am 31.0 31.4 17.3 43 8.7 SSE 11 13 6 7 1014.0 - 0.0
27/11:00am 31.2 32.3 18.9 48 8.0 SE 11 13 6 7 1014.4 - 0.0
27/10:30am 30.9 31.6 18.9 48 7.8 ESE 13 15 7 8 1014.8 - 0.0
27/10:00am 30.8 31.7 19.2 50 7.6 ESE 13 15 7 8 1014.9 - 0.0
27/09:30am 30.4 31.1 19.7 52 7.0 E 15 17 8 9 1014.9 - 0.0
27/09:00am 30.2 30.9 19.6 53 6.9 ESE 15 17 8 9 1015.1 1015.1 0.0
27/08:30am 29.3 28.8 18.7 52 6.8 E 19 20 10 11 1015.0 - 0.0
27/08:00am 28.6 28.1 19.2 56 6.1 ESE 20 22 11 12 1014.9 - 0.0
27/07:30am 28.5 28.2 19.1 56 6.1 ESE 19 22 10 12 1014.8 - 0.0
27/07:00am 28.2 27.9 19.1 57 5.9 ESE 19 20 10 11 1014.6 - 0.0
27/06:30am 28.1 27.8 19.1 58 5.8 ESE 19 22 10 12 1014.3 - 0.0
27/06:00am 28.2 27.9 19.1 57 5.9 E 19 22 10 12 1014.1 1014.1 0.0
27/05:30am 28.2 27.6 18.9 57 6.0 E 20 24 11 13 1014.1 - 0.0
27/05:00am 28.2 27.7 19.1 57 5.9 E 20 22 11 12 1013.9 - 0.0
27/04:30am 28.3 27.6 19.5 59 5.7 ESE 22 28 12 15 1013.8 - 0.0
27/04:00am 28.3 28.1 19.8 60 5.5 ESE 20 24 11 13 1013.8 - 0.0
27/03:30am 28.4 27.1 19.1 57 6.0 ESE 24 26 13 14 1013.8 - 0.0
27/03:00am 28.4 27.2 19.3 57 5.9 ESE 24 28 13 15 1014.0 1014.0 0.0
27/02:30am 28.3 27.0 19.0 57 6.0 SE 24 30 13 16 1014.0 - 0.0
27/02:00am 28.4 27.1 19.1 57 6.0 SE 24 28 13 15 1014.1 - 0.0
27/01:30am 28.7 27.1 19.3 56 6.1 SE 26 28 14 15 1014.2 - 0.0
27/01:00am 28.9 26.9 19.2 55 6.3 ESE 28 32 15 17 1014.4 - 0.0
27/12:30am 28.8 26.4 19.1 55 6.3 ESE 30 33 16 18 1014.6 - 0.0
27/12:00am 28.9 26.2 19.2 55 6.3 SE 32 37 17 20 1014.7 1014.7 0.0
 
Date/Time
WST
Temp
°C
App
Temp
°C
Dew
Point
Rel
Hum
%
Delta-T
°C
Wind Press
QNH
hPa
Press
MSL
hPa
Rain
since 9 am
mm
Dir
 
Spd
km/h
Gust
km/h
Spd
kts
Gust
kts
26/11:30pm 29.0 26.6 20.4 59 5.7 SE 33 41 18 22 1014.8 - 0.0
26/11:00pm 29.1 26.7 20.3 59 5.8 SE 33 39 18 21 1014.9 - 0.0
26/10:30pm 29.4 26.9 21.6 63 5.2 SSE 37 41 20 22 1014.9 - 0.0
26/10:00pm 29.4 27.6 20.3 58 6.0 S 30 35 16 19 1014.8 - 0.0
26/09:30pm 29.4 28.5 21.4 62 5.4 S 28 33 15 18 1015.0 - 0.0
26/09:00pm 29.8 29.3 21.5 61 5.6 SSE 26 32 14 17 1014.8 1014.8 0.0
26/08:30pm 29.9 29.5 22.3 63 5.2 SSE 28 32 15 17 1014.7 - 0.0
26/08:00pm 28.7 31.2 21.7 66 4.7 WSW 11 15 6 8 1014.5 - 0.0
26/07:30pm 28.7 31.5 21.5 65 4.8 W 9 9 5 5 1014.3 - 0.0
26/07:00pm 29.1 31.6 21.8 64 4.9 W 11 13 6 7 1014.2 - 0.0
26/06:30pm 29.9 32.3 22.9 66 4.8 SW 15 19 8 10 1013.7 - 0.0
26/06:00pm 30.7 31.6 20.9 56 6.5 SW 17 20 9 11 1013.3 1013.3 0.0
26/05:30pm 31.2 33.0 21.9 57 6.3 SW 15 19 8 10 1012.9 - 0.0
26/05:00pm 31.8 34.3 19.1 47 8.3 E 4 7 2 4 1012.8 - 0.0
26/04:30pm 32.1 32.8 19.7 48 8.2 ENE 15 17 8 9 1012.7 - 0.0
26/04:00pm 32.6 33.9 17.6 40 9.6 E 7 9 4 5 1012.7 - 0.0
26/03:30pm 32.2 33.4 17.3 41 9.5 ESE 7 7 4 4 1012.8 - 0.0
26/03:00pm 32.7 33.3 15.7 36 10.6 ESE 7 11 4 6 1013.0 1013.0 0.0
26/02:30pm 32.2 33.2 16.9 40 9.7 SSE 7 9 4 5 1013.0 - 0.0
26/02:00pm 31.2 34.4 23.0 61 5.6 SSW 11 13 6 7 1013.5 - 0.0
26/01:30pm 31.9 35.5 23.7 62 5.7 SW 11 13 6 7 1013.8 - 0.0
26/01:00pm 31.2 34.5 22.5 60 5.9 SSW 9 11 5 6 1013.9 - 0.0
26/12:30pm 30.7 33.7 22.0 59 5.9 S 9 11 5 6 1014.0 - 0.0
26/12:00pm 31.8 34.9 22.8 59 6.2 SSE 11 13 6 7 1014.3 1014.3 0.0
26/11:30am 31.6 33.5 22.0 56 6.5 SE 15 17 8 9 1014.6 - 0.0
26/11:00am 30.8 32.3 22.7 62 5.5 SE 19 22 10 12 1015.1 - 0.0
26/10:30am 29.4 30.5 21.9 64 5.1 SE 19 20 10 11 1015.4 - 0.0
26/10:00am 29.5 30.6 22.0 64 5.1 SSE 19 22 10 12 1015.5 - 0.0
26/09:30am 28.9 29.9 22.2 67 4.5 SSE 20 24 11 13 1015.6 - 0.0
26/09:00am 29.3 30.6 22.3 66 4.7 SE 19 24 10 13 1015.5 1015.5 0.0
26/08:30am 28.9 30.5 22.2 67 4.5 SSE 17 20 9 11 1015.7 - 0.0
26/08:00am 27.9 29.1 22.1 70 3.9 S 19 22 10 12 1015.5 - 0.0
26/07:30am 27.3 27.7 21.8 72 3.7 SSE 22 26 12 14 1015.3 - 0.0
26/07:00am 27.4 27.2 22.1 73 3.6 SSE 26 30 14 16 1015.3 - 0.0
26/06:30am 27.8 28.1 22.3 72 3.7 SSE 24 28 13 15 1014.9 - 0.0
26/06:00am 27.3 27.9 21.3 69 4.0 SSE 20 24 11 13 1014.4 1014.4 0.0
26/05:30am 27.1 28.1 22.1 74 3.4 SSE 20 24 11 13 1013.8 - 0.0
26/05:00am 27.2 28.6 22.8 77 3.0 SSE 20 24 11 13 1013.8 - 0.0
26/04:30am 27.4 29.1 23.0 77 3.0 SSE 19 24 10 13 1013.8 - 0.0
26/04:00am 27.6 29.3 23.0 76 3.1 S 19 20 10 11 1013.6 - 0.0
26/03:30am 27.4 30.0 22.6 75 3.2 S 13 15 7 8 1013.5 - 0.0
26/03:00am 25.6 30.1 21.5 78 2.7 CALM 0 0 0 0 1013.6 1013.6 0.0
26/02:30am 25.6 30.0 21.3 77 2.8 CALM 0 0 0 0 1013.6 - 0.0
26/02:00am 27.6 32.3 21.9 71 3.8 CALM 0 0 0 0 1013.6 - 0.0
26/01:30am 27.8 31.1 21.8 70 4.0 E 7 9 4 5 1013.8 - 0.0
26/01:00am 28.0 30.0 21.5 67 4.3 ESE 13 17 7 9 1013.9 - 0.0
26/12:30am 28.0 29.8 21.8 69 4.2 E 15 19 8 10 1014.3 - 0.0
26/12:00am 28.2 29.0 21.7 68 4.4 E 20 22 11 12 1014.4 1014.4 0.0
 
Date/Time
WST
Temp
°C
App
Temp
°C
Dew
Point
Rel
Hum
%
Delta-T
°C
Wind Press
QNH
hPa
Press
MSL
hPa
Rain
since 9 am
mm
Dir
 
Spd
km/h
Gust
km/h
Spd
kts
Gust
kts
25/11:30pm 28.2 29.1 22.0 69 4.2 ESE 20 24 11 13 1014.5 - 0.0
25/11:00pm 28.2 29.3 22.0 69 4.2 ESE 19 24 10 13 1014.4 - 0.0
25/10:30pm 28.3 29.0 22.3 70 4.1 ESE 22 30 12 16 1014.7 - 0.0
25/10:00pm 28.5 28.7 22.0 68 4.4 E 24 28 13 15 1014.8 - 0.0
25/09:30pm 28.8 29.8 22.1 67 4.5 SE 20 28 11 15 1015.2 - 0.0
25/09:00pm 29.2 31.3 22.4 66 4.6 ESE 15 22 8 12 1014.8 1014.8 0.0
25/08:30pm 29.1 28.3 21.6 64 5.0 SE 28 39 15 21 1014.7 - 0.0
25/08:27pm 29.0 27.5 21.7 64 4.9 SE 32 39 17 21 1014.7 - 0.0
25/08:00pm 28.8 30.5 21.6 65 4.8 NNW 15 20 8 11 1013.6 - 0.0
25/07:30pm 28.9 31.0 20.9 62 5.3 N 11 13 6 7 1013.5 - 0.0
25/07:00pm 29.1 30.0 20.0 58 6.0 N 15 19 8 10 1013.4 - 0.0
25/06:30pm 29.4 29.2 19.7 56 6.3 N 20 26 11 14 1013.0 - 0.0
25/06:00pm 30.0 28.0 19.1 52 7.1 N 28 32 15 17 1012.5 1012.5 0.0
25/05:30pm 30.9 29.0 19.3 50 7.6 N 28 35 15 19 1012.2 - 0.0
25/05:00pm 31.3 28.0 17.9 44 8.6 N 32 39 17 21 1011.7 - 0.0
25/04:30pm 31.6 27.8 18.2 44 8.6 N 35 43 19 23 1011.7 - 0.0
25/04:00pm 32.0 28.4 18.6 45 8.7 NNE 35 43 19 23 1011.8 - 0.0
25/03:30pm 31.7 28.9 20.3 50 7.6 NNE 35 43 19 23 1011.8 - 0.0
25/03:00pm 31.4 28.4 21.3 55 6.8 NNE 39 44 21 24 1011.9 1011.9 0.0
25/02:30pm 31.0 28.1 20.9 55 6.7 NNE 37 43 20 23 1012.2 - 0.0
25/02:00pm 30.7 28.1 20.6 54 6.7 NNE 35 43 19 23 1012.6 - 0.0
25/01:30pm 30.4 28.5 20.9 57 6.3 NNE 32 37 17 20 1012.9 - 0.0
25/01:00pm 30.5 28.3 20.7 55 6.5 NE 33 39 18 21 1013.1 - 0.0
25/12:30pm 30.8 29.1 21.3 57 6.4 NE 32 35 17 19 1013.2 - 0.0
25/12:00pm 30.8 30.5 21.9 59 6.0 NE 26 32 14 17 1013.6 1013.6 0.0
25/11:30am 30.7 29.8 21.5 58 6.2 NE 28 32 15 17 1013.9 - 0.0
25/11:00am 30.5 29.2 21.3 58 6.2 NE 30 35 16 19 1014.1 - 0.0
25/10:30am 30.3 29.6 22.5 63 5.3 NE 30 35 16 19 1014.2 - 0.0
25/10:00am 30.3 31.1 23.2 65 4.9 ENE 24 28 13 15 1014.7 - 0.0
25/09:30am 29.9 29.6 23.3 67 4.5 ENE 30 35 16 19 1014.5 - 0.0
25/09:00am 29.6 31.7 23.8 71 4.0 ENE 19 24 10 13 1014.6 1014.6 0.0
25/08:30am 29.4 31.4 23.6 71 4.0 ENE 19 22 10 12 1014.3 - 0.0
25/08:00am 28.8 31.3 23.2 71 3.8 ENE 15 19 8 10 1014.1 - 0.0
25/07:30am 28.2 30.0 23.3 75 3.4 E 19 22 10 12 1013.9 - 0.0
25/07:00am 27.7 29.9 23.9 80 2.6 E 19 20 10 11 1013.7 - 0.0
25/06:30am 27.4 29.5 23.8 81 2.5 E 19 22 10 12 1013.5 - 0.0
25/06:00am 27.5 29.7 23.9 81 2.5 ESE 19 20 10 11 1013.3 1013.3 0.0
25/05:30am 27.4 29.8 23.6 80 2.6 SSE 17 20 9 11 1013.0 - 0.0
25/05:00am 27.5 29.6 24.1 82 2.3 SSE 20 22 11 12 1012.7 - 0.0
25/04:30am 27.4 29.6 24.0 82 2.3 SSE 19 22 10 12 1012.4 - 0.0
25/04:00am 27.4 30.0 24.0 82 2.3 S 17 19 9 10 1012.3 - 0.0
25/03:30am 27.4 30.6 24.3 83 2.1 S 15 19 8 10 1012.5 - 0.0
25/03:00am 27.5 30.3 24.3 83 2.2 S 17 19 9 10 1012.5 1012.5 0.0
25/02:30am 27.6 30.2 24.6 84 2.1 S 19 20 10 11 1012.6 - 0.0
25/02:00am 27.5 30.3 24.3 83 2.2 SSW 17 20 9 11 1012.7 - 0.0
25/01:30am 27.5 30.7 24.3 83 2.2 S 15 19 8 10 1012.7 - 0.0
25/01:00am 27.5 30.2 24.1 82 2.3 SSW 17 20 9 11 1012.7 - 0.0
25/12:30am 27.6 30.1 24.4 83 2.2 SSW 19 20 10 11 1012.8 - 0.0
25/12:00am 27.6 30.5 24.4 83 2.2 SSW 17 20 9 11 1013.0 1013.0 0.0
 
Date/Time
WST
Temp
°C
App
Temp
°C
Dew
Point
Rel
Hum
%
Delta-T
°C
Wind Press
QNH
hPa
Press
MSL
hPa
Rain
since 9 am
mm
Dir
 
Spd
km/h
Gust
km/h
Spd
kts
Gust
kts
24/11:30pm 27.3 29.8 24.4 84 2.0 SW 19 20 10 11 1013.0 - 0.0
24/11:00pm 27.2 29.6 24.3 84 2.0 SW 19 22 10 12 1013.0 - 0.0
24/10:30pm 27.1 29.5 24.2 84 2.0 SW 19 22 10 12 1013.2 - 0.0
24/10:00pm 27.0 30.1 24.1 84 2.0 SW 15 19 8 10 1013.2 - 0.0
24/09:30pm 27.0 30.3 23.9 83 2.1 SW 13 15 7 8 1013.2 - 0.0
24/09:00pm 27.2 30.8 23.7 81 2.4 WSW 11 13 6 7 1013.2 1013.2 0.0
24/08:30pm 27.3 31.4 23.3 79 2.7 WSW 7 9 4 5 1013.2 - 0.0
24/08:00pm 27.6 31.2 23.0 76 3.1 WNW 9 11 5 6 1012.7 - 0.0
24/07:30pm 27.9 30.8 23.1 75 3.3 WNW 13 17 7 9 1012.4 - 0.0
24/07:00pm 28.2 30.6 22.9 73 3.6 W 15 20 8 11 1012.0 - 0.0
24/06:30pm 29.0 31.1 22.5 68 4.4 WNW 15 19 8 10 1011.6 - 0.0
24/06:00pm 30.0 31.1 21.9 62 5.5 NW 19 24 10 13 1011.4 1011.4 0.0
24/05:30pm 30.9 31.7 21.7 58 6.2 NNW 20 28 11 15 1011.3 - 0.0
24/05:00pm 29.9 31.3 23.6 69 4.3 NE 22 28 12 15 1011.1 - 0.0
24/04:30pm 29.9 31.0 23.6 69 4.3 NE 24 26 13 14 1011.1 - 0.0
24/04:00pm 29.9 31.3 22.9 66 4.8 NE 20 24 11 13 1011.1 - 0.0
24/03:30pm 30.1 31.9 23.3 67 4.7 NE 19 24 10 13 1011.2 - 0.0
24/03:00pm 30.2 31.0 23.1 65 4.9 NE 24 28 13 15 1011.2 1011.2 0.0

Other Formats:

Comma delimited format used in spreadsheet applications
http://www.bom.gov.au/fwo/IDW60801/IDW60801.95304.axf

JavaScript Object Notation format (JSON) in row-major order
http://www.bom.gov.au/fwo/IDW60801/IDW60801.95304.json